createdAt,value
2019-04-01T00:00:38.280Z,4.05
2019-04-01T00:03:05.387Z,4.04
2019-04-01T00:05:31.652Z,4.04
2019-04-01T00:07:57.874Z,4.05
2019-04-01T00:10:24.508Z,4.06
2019-04-01T00:12:50.687Z,4.06
2019-04-01T00:15:16.978Z,4.06
2019-04-01T00:17:43.750Z,4.06
2019-04-01T00:20:10.116Z,4.08
2019-04-01T00:22:36.258Z,4.08
2019-04-01T00:25:03.057Z,4.08
2019-04-01T00:27:29.239Z,4.07
2019-04-01T00:29:55.406Z,4.05
2019-04-01T00:32:22.007Z,4.04
2019-04-01T00:34:48.192Z,4.04
2019-04-01T00:37:14.523Z,4.04
2019-04-01T00:39:41.107Z,4.03
2019-04-01T00:42:18.241Z,4.02
2019-04-01T00:44:44.419Z,4.01
2019-04-01T00:47:10.672Z,3.97
2019-04-01T00:49:36.872Z,3.92
2019-04-01T00:52:03.139Z,3.87
2019-04-01T00:54:29.427Z,3.85
2019-04-01T00:56:55.595Z,3.80
2019-04-01T00:59:22.207Z,3.76
2019-04-01T01:01:48.477Z,3.67
2019-04-01T01:04:14.744Z,3.67
2019-04-01T01:06:41.276Z,3.57
2019-04-01T01:09:07.412Z,3.57
2019-04-01T01:11:34.428Z,3.56
2019-04-01T01:14:00.580Z,3.51
2019-04-01T01:16:27.891Z,3.48
2019-04-01T01:18:54.009Z,3.46
2019-04-01T01:21:20.287Z,3.42
2019-04-01T01:23:46.940Z,3.37
2019-04-01T01:26:13.091Z,3.39
2019-04-01T01:28:39.444Z,3.39
2019-04-01T01:31:06.083Z,3.34
2019-04-01T01:33:32.244Z,3.33
2019-04-01T01:35:58.386Z,3.27
2019-04-01T01:38:24.902Z,3.21
2019-04-01T01:40:51.058Z,3.18
2019-04-01T01:43:17.222Z,3.15
2019-04-01T01:45:43.793Z,3.11
2019-04-01T01:48:10.069Z,3.05
2019-04-01T01:50:36.503Z,2.96
2019-04-01T01:53:03.073Z,2.93
2019-04-01T01:55:29.288Z,2.90
2019-04-01T01:57:57.222Z,2.81
2019-04-01T02:00:26.600Z,2.81
2019-04-01T02:02:54.786Z,2.76
2019-04-01T02:05:23.197Z,2.76
2019-04-01T02:07:49.880Z,2.73
2019-04-01T02:10:16.063Z,2.68
2019-04-01T02:12:42.243Z,2.69
2019-04-01T02:15:08.950Z,2.64
2019-04-01T02:17:35.127Z,2.64
2019-04-01T02:20:01.283Z,2.57
2019-04-01T02:22:27.466Z,2.57
2019-04-01T02:24:53.712Z,2.53
2019-04-01T02:27:19.894Z,2.49
2019-04-01T02:29:46.487Z,2.44
2019-04-01T02:32:12.685Z,2.43
2019-04-01T02:34:38.866Z,2.37
2019-04-01T02:37:05.037Z,2.37
2019-04-01T02:39:31.609Z,2.34
2019-04-01T02:41:57.879Z,2.30
2019-04-01T02:44:24.064Z,2.30
2019-04-01T02:46:50.531Z,2.30
2019-04-01T02:49:16.772Z,2.20
2019-04-01T02:51:42.921Z,2.20
2019-04-01T02:54:09.107Z,2.13
2019-04-01T02:56:35.235Z,2.13
2019-04-01T02:59:01.694Z,2.14
2019-04-01T03:01:27.833Z,2.11
2019-04-01T03:03:54.394Z,2.10
2019-04-01T03:06:20.578Z,2.09
2019-04-01T03:08:46.739Z,2.08
2019-04-01T03:11:13.214Z,2.07
2019-04-01T03:13:39.411Z,2.03
2019-04-01T03:16:05.662Z,1.99
2019-04-01T03:18:32.271Z,1.97
2019-04-01T03:20:58.452Z,1.88
2019-04-01T03:23:24.747Z,1.88
2019-04-01T03:25:51.290Z,1.85
2019-04-01T03:28:17.450Z,1.82
2019-04-01T03:30:43.590Z,1.77
2019-04-01T03:33:09.869Z,1.73
2019-04-01T03:35:36.053Z,1.73
2019-04-01T03:38:02.306Z,1.72
2019-04-01T03:40:28.530Z,1.69
2019-04-01T03:42:55.750Z,1.66
2019-04-01T03:45:21.918Z,1.58
2019-04-01T03:47:48.329Z,1.55
2019-04-01T03:50:14.845Z,1.51
2019-04-01T03:52:41.203Z,1.47
2019-04-01T03:55:07.359Z,1.46
2019-04-01T03:57:34.113Z,1.43
2019-04-01T04:00:00.526Z,1.44
2019-04-01T04:02:26.932Z,1.40
2019-04-01T04:04:53.512Z,1.40
2019-04-01T04:07:19.667Z,1.39
2019-04-01T04:09:45.752Z,1.37
2019-04-01T04:12:12.351Z,1.37
2019-04-01T04:14:39.574Z,1.33
2019-04-01T04:17:05.713Z,1.29
2019-04-01T04:19:31.942Z,1.27
2019-04-01T04:21:58.102Z,1.25
2019-04-01T04:24:24.351Z,1.23
2019-04-01T04:26:50.780Z,1.22
2019-04-01T04:29:16.917Z,1.21
2019-04-01T04:31:43.092Z,1.16
2019-04-01T04:34:09.815Z,1.21
2019-04-01T04:36:36.420Z,1.19
2019-04-01T04:39:05.010Z,1.16
2019-04-01T04:41:31.779Z,1.14
2019-04-01T04:43:58.034Z,1.11
2019-04-01T04:46:24.353Z,1.08
2019-04-01T04:48:50.884Z,1.02
2019-04-01T04:51:17.090Z,0.98
2019-04-01T04:53:43.242Z,0.93
2019-04-01T04:56:09.930Z,0.91
2019-04-01T04:58:36.185Z,0.86
2019-04-01T05:01:02.425Z,0.79
2019-04-01T05:03:29.085Z,0.72
2019-04-01T05:05:55.367Z,0.65
2019-04-01T05:08:21.621Z,0.63
2019-04-01T05:10:48.250Z,0.63
2019-04-01T05:13:14.407Z,0.61
2019-04-01T05:15:40.776Z,0.58
2019-04-01T05:18:07.374Z,0.56
2019-04-01T05:20:34.317Z,0.56
2019-04-01T05:23:01.987Z,0.58
2019-04-01T05:25:31.860Z,0.61
2019-04-01T05:27:57.624Z,0.61
2019-04-01T05:30:23.962Z,0.61
2019-04-01T05:32:53.131Z,0.62
2019-04-01T05:35:19.528Z,0.59
2019-04-01T05:37:45.667Z,0.60
2019-04-01T05:40:12.424Z,0.62
2019-04-01T05:42:38.545Z,-0.92
2019-04-01T05:45:05.822Z,0.67
2019-04-01T05:47:38.128Z,0.72
2019-04-01T05:50:05.216Z,0.78
2019-04-01T05:52:31.513Z,0.78
2019-04-01T05:54:58.066Z,0.82
2019-04-01T05:57:24.222Z,0.88
2019-04-01T05:59:50.357Z,0.92
2019-04-01T06:02:16.876Z,0.96
2019-04-01T06:04:43.026Z,1.02
2019-04-01T06:07:09.182Z,1.06
2019-04-01T06:09:35.995Z,1.13
2019-04-01T06:12:02.133Z,1.20
2019-04-01T06:14:28.447Z,1.30
2019-04-01T06:16:54.582Z,1.30
2019-04-01T06:19:20.835Z,1.38
2019-04-01T06:21:47.151Z,1.45
2019-04-01T06:24:13.715Z,1.52
2019-04-01T06:26:40.076Z,1.58
2019-04-01T06:29:06.343Z,1.67
2019-04-01T06:31:32.474Z,1.70
2019-04-01T06:33:58.643Z,1.75
2019-04-01T06:36:24.814Z,1.77
2019-04-01T06:38:51.264Z,1.94
2019-04-01T06:41:17.433Z,1.94
2019-04-01T06:43:43.893Z,2.09
2019-04-01T06:46:10.414Z,2.19
2019-04-01T06:48:36.580Z,2.39
2019-04-01T06:51:02.791Z,2.39
2019-04-01T06:53:29.414Z,2.50
2019-04-01T06:55:55.651Z,2.78
2019-04-01T06:58:21.834Z,2.92
2019-04-01T07:00:48.638Z,2.92
2019-04-01T07:03:18.356Z,3.03
2019-04-01T07:05:43.143Z,3.23
2019-04-01T07:08:09.710Z,3.23
2019-04-01T07:10:36.265Z,3.45
2019-04-01T07:13:02.445Z,3.45
2019-04-01T07:15:28.887Z,3.60
2019-04-01T07:17:55.033Z,3.91
2019-04-01T07:20:21.210Z,4.15
2019-04-01T07:22:47.962Z,4.40
2019-04-01T07:25:14.136Z,4.63
2019-04-01T07:27:40.669Z,4.89
2019-04-01T07:30:07.305Z,5.13
2019-04-01T07:32:33.476Z,5.29
2019-04-01T07:34:59.643Z,5.46
2019-04-01T07:37:25.797Z,5.63
2019-04-01T07:39:52.053Z,5.79
2019-04-01T07:42:18.284Z,5.93
2019-04-01T07:44:44.457Z,6.12
2019-04-01T07:47:10.748Z,6.27
2019-04-01T07:49:36.968Z,6.45
2019-04-01T07:52:03.391Z,6.55
2019-04-01T07:54:29.842Z,6.63
2019-04-01T07:56:56.034Z,6.74
2019-04-01T07:59:22.156Z,6.83
2019-04-01T08:01:48.285Z,6.95
2019-04-01T08:04:14.457Z,7.08
2019-04-01T08:06:40.748Z,7.29
2019-04-01T08:09:07.437Z,7.48
2019-04-01T08:11:33.860Z,7.55
2019-04-01T08:14:00.329Z,7.65
2019-04-01T08:16:26.481Z,7.49
2019-04-01T08:18:52.645Z,7.86
2019-04-01T08:21:18.802Z,8.01
2019-04-01T08:23:45.596Z,6.82
2019-04-01T08:26:11.743Z,8.31
2019-04-01T08:28:37.873Z,8.19
2019-04-01T08:31:04.764Z,8.42
2019-04-01T08:33:31.014Z,8.55
2019-04-01T08:35:57.180Z,8.53
2019-04-01T08:38:23.733Z,8.58
2019-04-01T08:40:49.870Z,8.72
2019-04-01T08:43:16.041Z,8.87
2019-04-01T08:45:42.589Z,9.00
2019-04-01T08:48:08.778Z,9.12
2019-04-01T08:50:35.137Z,9.30
2019-04-01T08:56:24.361Z,9.49
2019-04-01T08:58:50.509Z,9.79
2019-04-01T09:01:16.749Z,10.03
2019-04-01T09:03:43.248Z,10.17
2019-04-01T09:06:09.513Z,10.16
2019-04-01T09:08:35.920Z,10.20
2019-04-01T09:11:02.496Z,10.25
2019-04-01T09:13:28.871Z,10.35
2019-04-01T09:15:55.623Z,10.45
2019-04-01T09:18:22.195Z,10.54
2019-04-01T09:20:48.321Z,10.67
2019-04-01T09:23:14.415Z,10.84
2019-04-01T09:25:41.010Z,11.01
2019-04-01T09:28:07.464Z,11.23
2019-04-01T09:30:33.848Z,11.41
2019-04-01T09:33:00.098Z,11.50
2019-04-01T09:35:26.213Z,11.59
2019-04-01T09:37:52.363Z,11.68
2019-04-01T09:40:18.882Z,11.78
2019-04-01T09:42:45.067Z,11.82
2019-04-01T09:45:11.609Z,11.81
2019-04-01T09:47:37.793Z,11.96
2019-04-01T09:50:05.082Z,12.05
2019-04-01T09:52:31.701Z,12.08
2019-04-01T09:54:58.159Z,12.05
2019-04-01T09:57:24.456Z,12.20
2019-04-01T09:59:51.057Z,12.28
2019-04-01T10:02:31.289Z,12.36
2019-04-01T10:04:45.510Z,12.37
2019-04-01T10:07:11.704Z,12.33
2019-04-01T10:09:37.814Z,12.53
2019-04-01T10:12:04.090Z,12.69
2019-04-01T10:14:31.044Z,12.77
2019-04-01T10:16:57.278Z,12.97
2019-04-01T10:19:23.559Z,12.90
2019-04-01T10:21:50.106Z,12.78
2019-04-01T10:24:16.248Z,13.03
2019-04-01T10:26:42.709Z,13.09
2019-04-01T10:29:09.234Z,13.07
2019-04-01T10:31:35.360Z,12.92
2019-04-01T10:34:01.520Z,13.10
2019-04-01T10:36:27.927Z,13.30
2019-04-01T10:38:54.084Z,13.43
2019-04-01T10:41:20.275Z,13.43
2019-04-01T10:43:46.933Z,13.50
2019-04-01T10:46:13.195Z,13.58
2019-04-01T10:48:39.692Z,13.30
2019-04-01T10:51:06.339Z,13.54
2019-04-01T10:53:32.748Z,13.47
2019-04-01T10:55:59.009Z,13.77
2019-04-01T10:58:25.199Z,13.96
2019-04-01T11:00:51.583Z,14.10
2019-04-01T11:03:17.824Z,14.16
2019-04-01T11:05:44.776Z,13.73
2019-04-01T11:08:11.401Z,13.60
2019-04-01T11:10:37.631Z,13.43
2019-04-01T11:13:04.191Z,13.59
2019-04-01T11:15:30.356Z,13.67
2019-04-01T11:17:56.580Z,13.70
2019-04-01T11:20:22.827Z,13.97
2019-04-01T11:22:49.142Z,14.18
2019-04-01T11:25:15.691Z,14.38
2019-04-01T11:27:41.848Z,13.45
2019-04-01T11:30:08.549Z,14.64
2019-04-01T11:32:34.736Z,14.25
2019-04-01T11:35:00.901Z,14.79
2019-04-01T11:37:27.143Z,14.82
2019-04-01T11:39:53.806Z,14.82
2019-04-01T11:42:20.032Z,14.76
2019-04-01T11:44:46.242Z,14.85
2019-04-01T11:47:12.869Z,14.78
2019-04-01T11:49:39.007Z,14.85
2019-04-01T11:52:05.196Z,15.00
2019-04-01T11:54:31.694Z,14.88
2019-04-01T11:56:57.913Z,14.83
2019-04-01T11:59:24.274Z,14.87
2019-04-01T12:01:50.798Z,14.93
2019-04-01T12:04:16.958Z,15.14
2019-04-01T12:06:43.094Z,15.21
2019-04-01T12:09:09.761Z,15.29
2019-04-01T12:11:36.101Z,15.06
2019-04-01T12:14:05.108Z,15.08
2019-04-01T12:16:31.304Z,14.99
2019-04-01T12:18:57.434Z,14.99
2019-04-01T12:21:23.605Z,15.06
2019-04-01T12:23:49.736Z,15.13
2019-04-01T12:26:17.523Z,15.26
2019-04-01T12:28:43.988Z,15.36
2019-04-01T12:31:12.847Z,15.54
2019-04-01T12:33:38.972Z,15.41
2019-04-01T12:36:05.539Z,15.49
2019-04-01T12:38:31.761Z,15.65
2019-04-01T12:40:58.107Z,15.56
2019-04-01T12:43:24.235Z,15.41
2019-04-01T12:45:50.891Z,15.31
2019-04-01T12:48:17.061Z,15.34
2019-04-01T12:50:43.415Z,15.42
2019-04-01T12:53:09.987Z,15.57
2019-04-01T12:55:37.884Z,15.73
2019-04-01T12:58:04.278Z,15.77
2019-04-01T13:00:31.043Z,15.76
2019-04-01T13:02:57.206Z,15.73
2019-04-01T13:05:23.416Z,15.64
2019-04-01T13:07:52.333Z,15.76
2019-04-01T13:10:18.144Z,15.87
2019-04-01T13:12:46.309Z,14.56
2019-04-01T13:15:13.628Z,15.62
2019-04-01T13:17:40.274Z,15.74
2019-04-01T13:20:06.578Z,15.70
2019-04-01T13:22:33.346Z,15.90
2019-04-01T13:25:01.540Z,15.91
2019-04-01T13:27:30.823Z,15.79
2019-04-01T13:29:57.586Z,15.78
2019-04-01T13:32:23.752Z,15.43
2019-04-01T13:34:50.155Z,15.25
2019-04-01T13:37:18.289Z,14.73
2019-04-01T13:39:45.627Z,14.65
2019-04-01T13:42:12.831Z,14.34
2019-04-01T13:44:40.618Z,13.01
2019-04-01T13:47:07.070Z,14.18
2019-04-01T13:49:34.683Z,13.70
2019-04-01T13:52:03.667Z,13.61
2019-04-01T13:54:30.514Z,13.59
2019-04-01T13:56:57.088Z,13.64
2019-04-01T13:59:24.027Z,13.61
2019-04-01T14:01:50.346Z,13.53
2019-04-01T14:04:19.805Z,13.47
2019-04-01T14:06:47.171Z,13.53
2019-04-01T14:09:13.629Z,13.43
2019-04-01T14:11:43.397Z,12.28
2019-04-01T14:14:10.214Z,13.29
2019-04-01T14:16:44.072Z,13.28
2019-04-01T14:19:14.485Z,13.24
2019-04-01T14:21:43.978Z,13.28
2019-04-01T14:24:12.914Z,13.25
2019-04-01T14:26:41.097Z,13.30
2019-04-01T14:29:07.696Z,13.35
2019-04-01T14:31:34.656Z,13.26
2019-04-01T14:34:01.840Z,13.25
2019-04-01T14:36:29.955Z,13.30
2019-04-01T14:38:56.164Z,13.35
2019-04-01T14:41:26.538Z,13.29
2019-04-01T14:43:55.291Z,13.21
2019-04-01T14:46:22.090Z,13.06
2019-04-01T14:48:49.580Z,13.07
2019-04-01T14:51:18.401Z,13.09
2019-04-01T14:53:44.664Z,13.04
2019-04-01T14:56:11.343Z,13.04
2019-04-01T14:58:37.642Z,13.00
2019-04-01T15:01:04.043Z,12.98
2019-04-01T15:03:30.662Z,12.96
2019-04-01T15:05:57.046Z,12.94
2019-04-01T15:08:23.178Z,12.91
2019-04-01T15:10:49.781Z,12.92
2019-04-01T15:13:16.125Z,12.96
2019-04-01T15:15:43.046Z,12.99
2019-04-01T15:18:10.066Z,12.89
2019-04-01T15:20:36.865Z,12.82
2019-04-01T15:23:04.541Z,12.76
2019-04-01T15:25:30.941Z,12.77
2019-04-01T15:27:58.414Z,12.79
2019-04-01T15:30:27.868Z,12.75
2019-04-01T15:32:54.820Z,12.70
2019-04-01T15:35:21.175Z,12.66
2019-04-01T15:37:47.355Z,12.66
2019-04-01T15:40:13.778Z,12.62
2019-04-01T15:42:40.727Z,12.62
2019-04-01T15:45:08.376Z,12.64
2019-04-01T15:47:34.957Z,12.62
2019-04-01T15:50:09.917Z,12.57
2019-04-01T15:52:36.646Z,12.58
2019-04-01T15:55:05.154Z,12.53
2019-04-01T15:57:31.450Z,12.49
2019-04-01T16:00:00.027Z,12.43
2019-04-01T16:02:26.500Z,12.42
2019-04-01T16:04:52.937Z,12.42
2019-04-01T16:07:22.428Z,12.39
2019-04-01T16:09:47.711Z,11.12
2019-04-01T16:12:13.901Z,12.28
2019-04-01T16:14:40.241Z,12.21
2019-04-01T16:17:07.275Z,12.13
2019-04-01T16:19:34.044Z,12.07
2019-04-01T16:22:00.651Z,12.04
2019-04-01T16:24:27.635Z,12.03
2019-04-01T16:26:57.188Z,12.01
2019-04-01T16:29:23.335Z,11.97
2019-04-01T16:31:49.884Z,11.91
2019-04-01T16:34:16.007Z,11.87
2019-04-01T16:36:42.167Z,11.80
2019-04-01T16:39:09.900Z,11.77
2019-04-01T16:41:36.163Z,11.68
2019-04-01T16:44:02.537Z,11.55
2019-04-01T16:46:28.753Z,11.51
2019-04-01T16:48:54.986Z,11.44
2019-04-01T16:51:21.279Z,11.42
2019-04-01T16:53:48.161Z,11.34
2019-04-01T16:56:14.439Z,11.32
2019-04-01T16:58:40.644Z,11.27
2019-04-01T17:01:07.050Z,11.23
2019-04-01T17:03:33.259Z,11.22
2019-04-01T17:05:59.482Z,11.20
2019-04-01T17:08:25.814Z,11.20
2019-04-01T17:10:52.008Z,11.20
2019-04-01T17:13:18.939Z,11.22
2019-04-01T17:15:45.089Z,11.18
2019-04-01T17:18:11.310Z,11.10
2019-04-01T17:20:37.479Z,11.01
2019-04-01T17:23:03.690Z,10.92
2019-04-01T17:25:29.920Z,10.83
2019-04-01T17:27:56.429Z,10.76
2019-04-01T17:30:22.558Z,10.67
2019-04-01T17:32:48.915Z,10.56
2019-04-01T17:35:15.700Z,10.47
2019-04-01T17:37:41.851Z,10.41
2019-04-01T17:40:08.238Z,10.32
2019-04-01T17:42:34.924Z,10.23
2019-04-01T17:45:07.816Z,8.95
2019-04-01T17:47:35.215Z,10.09
2019-04-01T17:50:02.380Z,10.01
2019-04-01T17:52:29.800Z,9.94
2019-04-01T17:55:04.678Z,8.40
2019-04-01T17:57:31.074Z,9.79
2019-04-01T17:59:57.385Z,9.72
2019-04-01T18:02:24.438Z,9.66
2019-04-01T18:04:51.166Z,9.60
2019-04-01T18:07:17.468Z,9.55
2019-04-01T18:09:43.795Z,9.46
2019-04-01T18:12:10.639Z,9.39
2019-04-01T18:14:36.794Z,9.33
2019-04-01T18:17:02.958Z,9.24
2019-04-01T18:19:29.695Z,9.17
2019-04-01T18:21:56.063Z,9.09
2019-04-01T18:24:23.150Z,9.02
2019-04-01T18:26:49.595Z,8.96
2019-04-01T18:29:15.845Z,8.89
2019-04-01T18:31:41.962Z,8.81
2019-04-01T18:34:08.489Z,8.75
2019-04-01T18:36:35.028Z,7.18
2019-04-01T18:39:03.889Z,8.63
2019-04-01T18:41:29.505Z,8.55
2019-04-01T18:43:57.078Z,8.48
2019-04-01T18:46:23.837Z,8.42
2019-04-01T18:48:50.067Z,8.35
2019-04-01T18:51:16.352Z,8.28
2019-04-01T18:53:42.583Z,8.22
2019-04-01T18:56:09.036Z,8.16
2019-04-01T18:58:35.492Z,8.08
2019-04-01T19:01:04.371Z,8.01
2019-04-01T19:03:30.206Z,7.94
2019-04-01T19:05:59.840Z,7.89
2019-04-01T19:08:26.067Z,7.83
2019-04-01T19:11:02.101Z,7.75
2019-04-01T19:13:23.139Z,7.68
2019-04-01T19:15:50.602Z,7.61
2019-04-01T19:18:17.539Z,7.54
2019-04-01T19:20:55.644Z,7.45
2019-04-01T19:23:12.555Z,7.39
2019-04-01T19:25:38.803Z,7.29
2019-04-01T19:28:05.542Z,7.20
2019-04-01T19:30:32.747Z,7.12
2019-04-01T19:32:59.635Z,7.01
2019-04-01T19:35:27.011Z,6.94
2019-04-01T19:37:53.180Z,6.88
2019-04-01T19:40:22.971Z,6.82
2019-04-01T19:42:49.492Z,6.74
2019-04-01T19:45:15.849Z,6.67
2019-04-01T19:47:42.083Z,6.60
2019-04-01T19:50:08.842Z,6.54
2019-04-01T19:52:35.167Z,6.52
2019-04-01T19:55:03.182Z,6.46
2019-04-01T19:57:29.590Z,6.39
2019-04-01T19:59:55.962Z,6.36
2019-04-01T20:02:22.256Z,6.33
2019-04-01T20:04:48.406Z,6.33
2019-04-01T20:07:15.259Z,6.33
2019-04-01T20:09:42.634Z,6.32
2019-04-01T20:12:08.965Z,6.30
2019-04-01T20:14:35.251Z,6.32
2019-04-01T20:17:02.264Z,6.31
2019-04-01T20:19:28.842Z,6.29
2019-04-01T20:21:57.177Z,6.26
2019-04-01T20:24:23.931Z,6.22
2019-04-01T20:26:50.103Z,6.18
2019-04-01T20:29:16.468Z,6.13
2019-04-01T20:31:42.751Z,6.08
2019-04-01T20:34:19.078Z,6.07
2019-04-01T20:36:37.110Z,6.02
2019-04-01T20:39:06.278Z,5.99
2019-04-01T20:41:32.585Z,5.94
2019-04-01T20:43:58.758Z,5.88
2019-04-01T20:46:25.365Z,5.85
2019-04-01T20:48:51.526Z,5.82
2019-04-01T20:51:18.003Z,5.79
2019-04-01T20:53:44.562Z,5.79
2019-04-01T20:56:10.926Z,5.76
2019-04-01T20:58:37.254Z,5.75
2019-04-01T21:01:04.182Z,5.72
2019-04-01T21:03:30.692Z,5.69
2019-04-01T21:05:57.241Z,5.66
2019-04-01T21:08:24.050Z,5.63
2019-04-01T21:10:50.177Z,5.60
2019-04-01T21:13:16.657Z,5.57
2019-04-01T21:15:43.368Z,5.54
2019-04-01T21:18:09.937Z,5.49
2019-04-01T21:20:36.167Z,5.43
2019-04-01T21:23:02.346Z,5.36
2019-04-01T21:25:30.108Z,5.32
2019-04-01T21:27:56.478Z,5.28
2019-04-01T21:30:23.072Z,5.23
2019-04-01T21:32:49.376Z,5.19
2019-04-01T21:35:15.533Z,5.15
2019-04-01T21:37:42.046Z,5.11
2019-04-01T21:40:08.177Z,5.06
2019-04-01T21:42:34.741Z,4.99
2019-04-01T21:45:02.334Z,4.91
2019-04-01T21:47:28.573Z,4.84
2019-04-01T21:49:54.736Z,4.78
2019-04-01T21:52:20.984Z,4.71
2019-04-01T21:54:47.179Z,4.64
2019-04-01T21:57:13.374Z,4.60
2019-04-01T21:59:39.983Z,4.55
2019-04-01T22:02:06.559Z,4.49
2019-04-01T22:04:32.720Z,4.43
2019-04-01T22:06:59.524Z,4.38
2019-04-01T22:09:25.661Z,4.30
2019-04-01T22:11:51.837Z,4.27
2019-04-01T22:14:18.444Z,4.22
2019-04-01T22:16:44.630Z,4.18
2019-04-01T22:19:11.301Z,4.18
2019-04-01T22:21:39.441Z,4.18
2019-04-01T22:24:06.560Z,4.18
2019-04-01T22:26:32.703Z,4.17
2019-04-01T22:28:59.291Z,4.13
2019-04-01T22:31:25.477Z,4.08
2019-04-01T22:33:51.613Z,4.04
2019-04-01T22:36:30.233Z,4.00
2019-04-01T22:38:46.395Z,3.93
2019-04-01T22:41:12.656Z,3.86
2019-04-01T22:43:39.394Z,3.76
2019-04-01T22:46:05.685Z,3.70
2019-04-01T22:48:31.986Z,3.69
2019-04-01T22:50:58.519Z,3.64
2019-04-01T22:53:24.676Z,3.56
2019-04-01T22:55:50.853Z,3.52
2019-04-01T22:58:17.394Z,3.48
2019-04-01T23:00:43.672Z,3.45
2019-04-01T23:03:11.274Z,3.40
2019-04-01T23:05:37.910Z,3.35
2019-04-01T23:08:04.207Z,3.32
2019-04-01T23:10:30.467Z,3.30
2019-04-01T23:12:56.690Z,3.30
2019-04-01T23:15:22.930Z,3.25
2019-04-01T23:17:49.106Z,3.18
2019-04-01T23:20:15.653Z,3.10
2019-04-01T23:22:41.779Z,3.04
2019-04-01T23:25:08.002Z,3.02
2019-04-01T23:27:34.455Z,3.00
2019-04-01T23:30:00.756Z,2.94
2019-04-01T23:32:26.924Z,2.92
2019-04-01T23:34:53.594Z,2.90
2019-04-01T23:37:19.730Z,2.81
2019-04-01T23:39:45.901Z,2.81
2019-04-01T23:42:12.478Z,2.73
2019-04-01T23:44:38.619Z,2.73
2019-04-01T23:47:04.794Z,2.66
2019-04-01T23:49:31.216Z,2.64
2019-04-01T23:51:57.404Z,2.63
2019-04-01T23:54:23.544Z,2.63
2019-04-01T23:56:49.698Z,2.63
2019-04-01T23:59:15.876Z,2.63
